Time;durP1;ratioP1;P1;durP2;ratioP2;P2;SDS_P1;SDS_P2;PMS_P1;PMS_P2;Temp;Humidity;BMP_temperature;BMP_pressure;BME280_temperature;BME280_humidity;BME280_pressure;Samples;Min_cycle;Max_cycle;Signal;HPM_P1;HPM_P2
2021/11/16 00:00:10;;;;;;;2.03;1.67;;;;;;;;;;4809744;29;35517;-70
2021/11/16 00:02:40;;;;;;;2.53;1.65;;;;;;;;;;4811502;29;32385;-71
2021/11/16 00:05:08;;;;;;;3.20;1.83;;;;;;;;;;4811800;29;32424;-73
2021/11/16 00:07:35;;;;;;;2.67;1.38;;;;;;;;;;4811341;29;32309;-69
2021/11/16 00:10:03;;;;;;;3.47;1.73;;;;;;;;;;4810838;29;34207;-71
2021/11/16 00:12:29;;;;;;;1.90;1.48;;;;;;;;;;4810756;29;32133;-69
2021/11/16 00:14:56;;;;;;;2.05;1.40;;;;;;;;;;4810423;29;32389;-70
2021/11/16 00:17:22;;;;;;;2.90;1.85;;;;;;;;;;4810630;29;32480;-69
2021/11/16 00:19:51;;;;;;;2.72;1.38;;;;;;;;;;4812096;29;32373;-69
2021/11/16 00:22:18;;;;;;;2.20;1.73;;;;;;;;;;4811571;29;35895;-72
2021/11/16 00:25:06;;;;;;;2.97;1.77;;;;;;;;;;4811055;29;32282;-72
2021/11/16 00:27:34;;;;;;;2.55;1.70;;;;;;;;;;4811593;29;32456;-70
2021/11/16 00:30:02;;;;;;;2.55;1.63;;;;;;;;;;4809443;29;32286;-68
2021/11/16 00:32:29;;;;;;;2.45;1.55;;;;;;;;;;4809115;29;35914;-68
2021/11/16 00:34:57;;;;;;;3.67;1.70;;;;;;;;;;4809659;29;32265;-69
2021/11/16 00:37:29;;;;;;;3.17;1.88;;;;;;;;;;4809172;29;32353;-72
2021/11/16 00:39:59;;;;;;;2.60;1.67;;;;;;;;;;4809213;29;32531;-70
2021/11/16 00:42:27;;;;;;;3.03;1.40;;;;;;;;;;4809510;29;32440;-72
2021/11/16 00:44:54;;;;;;;2.85;1.88;;;;;;;;;;4810310;29;35103;-67
2021/11/16 00:47:21;;;;;;;2.13;1.63;;;;;;;;;;4810622;29;32432;-68
2021/11/16 00:49:50;;;;;;;3.28;1.45;;;;;;;;;;4811383;29;32405;-68
2021/11/16 00:52:19;;;;;;;5.32;1.83;;;;;;;;;;4811935;29;32448;-70
2021/11/16 00:54:45;;;;;;;3.03;1.48;;;;;;;;;;4811162;29;34182;-69
2021/11/16 00:57:12;;;;;;;2.42;1.70;;;;;;;;;;4811330;29;32450;-70
2021/11/16 00:59:38;;;;;;;3.95;1.85;;;;;;;;;;4811228;29;32610;-70
2021/11/16 01:02:05;;;;;;;3.75;1.77;;;;;;;;;;4811034;29;32278;-71
2021/11/16 01:04:32;;;;;;;2.20;1.77;;;;;;;;;;4811274;29;32484;-70
2021/11/16 01:06:58;;;;;;;2.15;1.40;;;;;;;;;;4811223;29;34827;-69
2021/11/16 01:09:26;;;;;;;2.67;1.52;;;;;;;;;;4810857;29;32356;-70
2021/11/16 01:11:53;;;;;;;2.38;1.63;;;;;;;;;;4811127;29;32425;-69
2021/11/16 01:14:20;;;;;;;3.35;1.30;;;;;;;;;;4811376;29;32480;-70
2021/11/16 01:16:47;;;;;;;2.90;1.42;;;;;;;;;;4809868;29;34428;-70
2021/11/16 01:19:14;;;;;;;2.92;1.52;;;;;;;;;;4811380;29;32443;-70
2021/11/16 01:21:40;;;;;;;2.00;1.40;;;;;;;;;;4810863;29;32432;-69
2021/11/16 01:24:09;;;;;;;3.30;2.10;;;;;;;;;;4811048;29;32420;-70
2021/11/16 01:26:37;;;;;;;1.67;1.27;;;;;;;;;;4811230;29;32347;-70
2021/11/16 01:29:04;;;;;;;3.58;1.60;;;;;;;;;;4810876;29;35041;-69
2021/11/16 01:31:30;;;;;;;2.20;1.90;;;;;;;;;;4810940;29;32359;-70
2021/11/16 01:33:59;;;;;;;2.17;1.75;;;;;;;;;;4810537;29;32424;-70
2021/11/16 01:36:26;;;;;;;2.92;1.85;;;;;;;;;;4810922;29;32669;-72
2021/11/16 01:38:56;;;;;;;2.70;2.00;;;;;;;;;;4810940;29;34559;-69
2021/11/16 01:41:23;;;;;;;2.45;2.10;;;;;;;;;;4811120;29;32533;-68
2021/11/16 01:43:52;;;;;;;3.08;1.75;;;;;;;;;;4810483;29;32553;-69
2021/11/16 01:46:20;;;;;;;2.15;1.92;;;;;;;;;;4809867;29;32365;-70
2021/11/16 01:48:50;;;;;;;2.03;1.42;;;;;;;;;;4810585;29;32425;-72
2021/11/16 01:51:19;;;;;;;2.22;1.42;;;;;;;;;;4810250;29;34624;-70
2021/11/16 01:53:46;;;;;;;2.45;1.55;;;;;;;;;;4810327;29;32568;-71
2021/11/16 01:56:13;;;;;;;2.15;1.77;;;;;;;;;;4809590;29;32532;-69
2021/11/16 01:58:40;;;;;;;1.85;1.58;;;;;;;;;;4810752;29;32354;-70
2021/11/16 02:01:08;;;;;;;2.15;1.40;;;;;;;;;;4810635;29;34124;-70
2021/11/16 02:03:35;;;;;;;4.43;2.35;;;;;;;;;;4810566;29;32556;-68
2021/11/16 02:06:19;;;;;;;2.38;1.25;;;;;;;;;;4810216;29;32441;-70
2021/11/16 02:08:47;;;;;;;2.25;1.60;;;;;;;;;;4810831;29;32428;-68
2021/11/16 02:11:13;;;;;;;;;;;;;;;;;;4810996;29;32323;-70
2021/11/16 02:13:40;;;;;;;2.30;1.73;;;;;;;;;;4808348;29;32590;-69
2021/11/16 02:16:08;;;;;;;2.95;1.92;;;;;;;;;;4810412;29;32279;-71
2021/11/16 02:18:36;;;;;;;1.88;1.38;;;;;;;;;;4809054;29;32344;-71
2021/11/16 02:21:05;;;;;;;3.38;1.75;;;;;;;;;;4810488;29;32424;-68
2021/11/16 02:23:32;;;;;;;1.70;1.52;;;;;;;;;;4810557;29;34553;-70
2021/11/16 02:25:59;;;;;;;2.38;1.92;;;;;;;;;;4809996;29;32273;-70
2021/11/16 02:28:26;;;;;;;2.45;1.48;;;;;;;;;;4810198;29;32353;-69
2021/11/16 02:30:54;;;;;;;2.80;1.83;;;;;;;;;;4809456;29;32557;-70
2021/11/16 02:33:21;;;;;;;2.13;1.42;;;;;;;;;;4809293;29;32671;-68
2021/11/16 02:35:49;;;;;;;3.45;1.40;;;;;;;;;;4809699;29;32429;-69
2021/11/16 02:38:18;;;;;;;2.58;1.90;;;;;;;;;;4809732;29;32869;-69
2021/11/16 02:40:45;;;;;;;3.25;1.52;;;;;;;;;;4809760;29;32503;-69
2021/11/16 02:43:12;;;;;;;1.80;1.45;;;;;;;;;;4809991;29;32494;-69
2021/11/16 02:45:39;;;;;;;2.28;1.30;;;;;;;;;;4808646;29;35674;-68
2021/11/16 02:48:12;;;;;;;2.30;1.33;;;;;;;;;;4809523;29;32565;-68
2021/11/16 02:50:39;;;;;;;2.78;1.80;;;;;;;;;;4808686;29;32420;-69
2021/11/16 02:53:06;;;;;;;;;;;;;;;;;;4809932;29;32485;-72
2021/11/16 02:55:34;;;;;;;1.73;1.02;;;;;;;;;;4809617;29;32647;-71
2021/11/16 02:58:01;;;;;;;2.35;1.23;;;;;;;;;;4809099;29;32530;-71
2021/11/16 03:00:27;;;;;;;2.03;1.20;;;;;;;;;;4809355;29;32632;-73
2021/11/16 03:02:54;;;;;;;2.53;1.20;;;;;;;;;;4809576;29;32585;-67
2021/11/16 03:05:21;;;;;;;2.42;1.20;;;;;;;;;;4810146;29;32427;-71
2021/11/16 03:07:55;;;;;;;2.35;1.25;;;;;;;;;;4808661;29;35452;-71
2021/11/16 03:10:26;;;;;;;2.13;1.30;;;;;;;;;;4809697;29;32297;-71
2021/11/16 03:12:54;;;;;;;2.38;1.67;;;;;;;;;;4810769;29;33522;-69
2021/11/16 03:15:21;;;;;;;2.92;1.42;;;;;;;;;;4808736;29;32419;-73
2021/11/16 03:17:48;;;;;;;5.57;1.65;;;;;;;;;;4809376;29;32473;-71
2021/11/16 03:20:17;;;;;;;2.85;1.27;;;;;;;;;;4808792;29;32460;-71
2021/11/16 03:22:48;;;;;;;4.38;1.08;;;;;;;;;;4808304;29;32660;-71
2021/11/16 03:25:14;;;;;;;3.65;1.58;;;;;;;;;;4809188;29;32390;-71
2021/11/16 03:27:44;;;;;;;3.42;1.63;;;;;;;;;;4809227;29;32240;-73
2021/11/16 03:30:12;;;;;;;5.18;1.77;;;;;;;;;;4808969;29;35302;-74
2021/11/16 03:32:39;;;;;;;4.35;1.23;;;;;;;;;;4822726;29;32420;-72
2021/11/16 03:35:08;;;;;;;4.95;1.65;;;;;;;;;;4820230;29;32350;-74
2021/11/16 03:37:40;;;;;;;3.75;1.70;;;;;;;;;;4812408;29;32511;-73
2021/11/16 03:40:09;;;;;;;4.18;1.55;;;;;;;;;;4811472;29;32369;-70
2021/11/16 03:42:40;;;;;;;6.28;1.90;;;;;;;;;;4811804;29;32664;-70
2021/11/16 03:45:07;;;;;;;2.97;1.55;;;;;;;;;;4810909;29;32244;-69
2021/11/16 03:47:36;;;;;;;3.17;1.23;;;;;;;;;;4811583;29;32522;-69
2021/11/16 03:50:03;;;;;;;3.90;1.75;;;;;;;;;;4811600;29;32311;-68
2021/11/16 03:52:34;;;;;;;3.42;1.42;;;;;;;;;;4793344;29;34661;-70
2021/11/16 03:55:01;;;;;;;6.68;1.55;;;;;;;;;;4807218;29;32414;-69
2021/11/16 03:57:29;;;;;;;6.35;1.42;;;;;;;;;;4814312;29;32492;-71
2021/11/16 03:59:55;;;;;;;;;;;;;;;;;;4812400;29;32312;-70
2021/11/16 04:02:22;;;;;;;4.15;1.45;;;;;;;;;;4811211;29;33925;-68
2021/11/16 04:04:54;;;;;;;3.25;1.77;;;;;;;;;;4809072;29;32365;-72
2021/11/16 04:07:21;;;;;;;4.13;1.80;;;;;;;;;;4808988;29;32415;-71
2021/11/16 04:09:48;;;;;;;3.90;1.70;;;;;;;;;;4811486;29;32484;-69
2021/11/16 04:12:15;;;;;;;3.42;1.35;;;;;;;;;;4811685;29;32338;-71
2021/11/16 04:14:41;;;;;;;4.93;1.25;;;;;;;;;;4810961;29;35179;-72
2021/11/16 04:17:08;;;;;;;4.18;1.95;;;;;;;;;;4810999;29;32543;-70
2021/11/16 04:19:34;;;;;;;4.10;1.38;;;;;;;;;;4811933;29;32385;-69
2021/11/16 04:22:03;;;;;;;4.05;1.70;;;;;;;;;;4811953;29;32223;-70
2021/11/16 04:24:30;;;;;;;3.85;1.73;;;;;;;;;;4810984;29;34826;-69
2021/11/16 04:26:57;;;;;;;3.88;1.73;;;;;;;;;;4811149;29;32815;-69
2021/11/16 04:29:23;;;;;;;3.03;1.73;;;;;;;;;;4811227;29;32722;-69
2021/11/16 04:31:51;;;;;;;2.33;1.50;;;;;;;;;;4813217;29;32634;-71
2021/11/16 04:34:18;;;;;;;4.03;1.45;;;;;;;;;;4810535;29;32406;-73
2021/11/16 04:36:44;;;;;;;2.45;1.40;;;;;;;;;;4810414;29;34652;-68
2021/11/16 04:39:12;;;;;;;2.67;1.92;;;;;;;;;;4810096;29;32537;-69
2021/11/16 04:41:39;;;;;;;3.40;1.58;;;;;;;;;;4810259;29;32428;-71
2021/11/16 04:44:07;;;;;;;3.42;1.73;;;;;;;;;;4810507;29;32386;-69
2021/11/16 04:46:34;;;;;;;3.88;1.45;;;;;;;;;;4807669;29;34631;-68
2021/11/16 04:54:21;;;;;;;3.63;1.83;;;;;;;;;;4809281;29;32408;-68
2021/11/16 05:04:55;;;;;;;3.22;1.65;;;;;;;;;;4811102;29;32581;-72
2021/11/16 05:07:24;;;;;;;5.30;1.70;;;;;;;;;;4811720;29;32388;-70
2021/11/16 05:09:53;;;;;;;3.67;2.35;;;;;;;;;;4810920;29;34662;-70
2021/11/16 05:12:23;;;;;;;3.38;1.80;;;;;;;;;;4810813;29;32427;-71
2021/11/16 05:14:52;;;;;;;2.67;1.50;;;;;;;;;;4811470;29;32434;-70
2021/11/16 05:17:18;;;;;;;4.32;1.63;;;;;;;;;;4809550;29;32531;-72
2021/11/16 05:19:45;;;;;;;4.55;1.65;;;;;;;;;;4810387;29;32408;-71
2021/11/16 05:22:11;;;;;;;3.35;2.00;;;;;;;;;;4810486;29;34099;-70
2021/11/16 05:24:38;;;;;;;5.05;1.95;;;;;;;;;;4811055;29;32364;-73
2021/11/16 05:27:06;;;;;;;3.67;1.80;;;;;;;;;;4809374;29;32165;-69
2021/11/16 05:29:34;;;;;;;3.08;1.90;;;;;;;;;;4810916;29;32507;-69
2021/11/16 05:32:00;;;;;;;5.90;1.98;;;;;;;;;;4810186;29;35067;-71
2021/11/16 05:34:27;;;;;;;2.67;1.88;;;;;;;;;;4810767;29;32557;-69
2021/11/16 05:36:53;;;;;;;4.40;2.22;;;;;;;;;;4810786;29;32594;-70
2021/11/16 05:39:20;;;;;;;7.30;1.58;;;;;;;;;;4810532;29;32420;-70
2021/11/16 05:41:47;;;;;;;3.70;1.90;;;;;;;;;;4810440;29;32426;-70
2021/11/16 05:44:14;;;;;;;2.97;1.50;;;;;;;;;;4810371;29;34579;-68
2021/11/16 05:46:42;;;;;;;2.45;1.52;;;;;;;;;;4809834;29;32453;-70
2021/11/16 05:49:08;;;;;;;3.20;2.33;;;;;;;;;;4810191;29;32426;-69
2021/11/16 05:51:36;;;;;;;4.43;1.95;;;;;;;;;;4809586;29;32501;-70
2021/11/16 05:54:04;;;;;;;4.93;1.50;;;;;;;;;;4809219;29;34513;-70
2021/11/16 05:56:35;;;;;;;3.70;1.50;;;;;;;;;;4810320;29;32391;-71
2021/11/16 05:59:03;;;;;;;3.72;1.35;;;;;;;;;;4810212;29;32506;-71
2021/11/16 06:01:32;;;;;;;2.25;1.40;;;;;;;;;;4809655;29;32500;-72
2021/11/16 06:04:00;;;;;;;4.13;1.50;;;;;;;;;;4810243;29;32460;-69
2021/11/16 06:06:29;;;;;;;2.65;1.67;;;;;;;;;;4810173;29;35506;-72
2021/11/16 06:08:58;;;;;;;2.33;1.25;;;;;;;;;;4809603;29;32423;-70
2021/11/16 06:11:25;;;;;;;3.88;1.65;;;;;;;;;;4810133;29;32524;-69
2021/11/16 06:13:55;;;;;;;2.08;1.60;;;;;;;;;;4810551;29;32500;-70
2021/11/16 06:16:23;;;;;;;4.72;1.40;;;;;;;;;;4810006;29;34122;-70
2021/11/16 06:18:51;;;;;;;4.43;1.17;;;;;;;;;;4809875;29;32606;-69
2021/11/16 06:21:21;;;;;;;2.85;1.10;;;;;;;;;;4807995;29;33094;-69
2021/11/16 06:23:48;;;;;;;2.45;1.00;;;;;;;;;;4809198;29;32440;-70
2021/11/16 06:26:15;;;;;;;2.42;1.30;;;;;;;;;;4808333;29;32443;-71
2021/11/16 06:28:42;;;;;;;4.50;1.10;;;;;;;;;;4809636;29;34268;-71
2021/11/16 06:31:09;;;;;;;3.10;1.30;;;;;;;;;;4809383;29;32388;-71
2021/11/16 06:33:36;;;;;;;6.53;1.80;;;;;;;;;;4809644;29;32398;-73
2021/11/16 06:36:03;;;;;;;6.88;1.63;;;;;;;;;;4809375;29;32454;-71
2021/11/16 06:38:31;;;;;;;;;;;;;;;;;;4809663;29;35421;-71
2021/11/16 06:40:57;;;;;;;2.90;1.20;;;;;;;;;;4809139;29;32589;-72
2021/11/16 06:43:26;;;;;;;3.88;1.65;;;;;;;;;;4808193;29;32396;-73
2021/11/16 06:45:55;;;;;;;3.22;1.60;;;;;;;;;;4808388;29;32541;-69
2021/11/16 06:48:23;;;;;;;2.70;1.85;;;;;;;;;;4809140;29;32460;-71
2021/11/16 06:50:53;;;;;;;4.30;1.45;;;;;;;;;;4805965;29;35425;-70
2021/11/16 06:53:24;;;;;;;2.00;1.35;;;;;;;;;;4808405;29;32226;-72
2021/11/16 06:55:52;;;;;;;2.85;1.48;;;;;;;;;;4806241;29;32793;-71
2021/11/16 06:58:19;;;;;;;4.63;1.77;;;;;;;;;;4808603;29;32385;-70
2021/11/16 07:00:46;;;;;;;3.97;1.10;;;;;;;;;;4809245;29;35540;-71
2021/11/16 07:03:17;;;;;;;4.18;1.13;;;;;;;;;;4808202;29;32617;-72
2021/11/16 07:05:47;;;;;;;7.03;1.58;;;;;;;;;;4809688;29;32507;-70
2021/11/16 07:08:27;;;;;;;2.58;1.17;;;;;;;;;;4810512;29;32355;-69
2021/11/16 07:11:07;;;;;;;4.47;1.50;;;;;;;;;;4810015;29;32570;-70
2021/11/16 07:13:36;;;;;;;1.48;1.15;;;;;;;;;;4810146;29;34224;-70
2021/11/16 07:16:12;;;;;;;4.43;1.38;;;;;;;;;;4810944;29;32659;-68
2021/11/16 07:18:48;;;;;;;2.20;1.20;;;;;;;;;;4810221;29;32471;-70
2021/11/16 07:21:15;;;;;;;3.80;1.42;;;;;;;;;;4675083;29;32551;-69
2021/11/16 07:23:41;;;;;;;2.22;1.13;;;;;;;;;;4813355;29;34568;-68
2021/11/16 07:26:14;;;;;;;6.80;1.33;;;;;;;;;;4810082;29;32618;-68
2021/11/16 07:28:48;;;;;;;2.75;1.63;;;;;;;;;;4810248;29;32646;-67
2021/11/16 07:31:19;;;;;;;1.67;1.30;;;;;;;;;;4809105;29;32842;-69
2021/11/16 07:33:46;;;;;;;1.88;1.15;;;;;;;;;;4810100;29;32422;-68
2021/11/16 07:36:15;;;;;;;1.98;1.08;;;;;;;;;;4808214;29;35719;-69
2021/11/16 07:38:44;;;;;;;1.80;1.15;;;;;;;;;;4809934;29;32426;-71
2021/11/16 07:41:10;;;;;;;2.00;1.33;;;;;;;;;;4809778;29;33393;-68
2021/11/16 07:43:38;;;;;;;2.80;1.48;;;;;;;;;;4808307;29;32640;-68
2021/11/16 07:46:05;;;;;;;2.97;1.08;;;;;;;;;;4809707;29;35289;-70
2021/11/16 07:48:32;;;;;;;4.13;1.25;;;;;;;;;;4809170;29;32459;-71
2021/11/16 07:51:02;;;;;;;2.70;1.33;;;;;;;;;;4810205;29;32608;-74
2021/11/16 07:53:32;;;;;;;6.07;1.15;;;;;;;;;;4810075;29;32455;-71
2021/11/16 07:56:03;;;;;;;1.70;1.33;;;;;;;;;;4808353;29;32334;-70
2021/11/16 07:58:35;;;;;;;2.47;1.27;;;;;;;;;;4808554;29;34428;-70
2021/11/16 08:01:14;;;;;;;2.42;1.23;;;;;;;;;;4807968;29;32520;-71
2021/11/16 08:06:51;;;;;;;2.28;1.40;;;;;;;;;;4793426;29;32390;-69
2021/11/16 08:09:38;;;;;;;5.38;1.38;;;;;;;;;;4810311;29;35277;-70
2021/11/16 08:15:00;;;;;;;2.90;1.25;;;;;;;;;;4811320;29;32365;-70
2021/11/16 08:17:28;;;;;;;;;;;;;;;;;;4809350;29;32746;-71
2021/11/16 08:19:57;;;;;;;2.30;0.88;;;;;;;;;;4807773;29;32286;-69
2021/11/16 08:22:24;;;;;;;4.63;1.02;;;;;;;;;;4808141;29;34112;-68
2021/11/16 08:24:53;;;;;;;2.05;0.90;;;;;;;;;;4805382;29;32504;-68
2021/11/16 08:27:23;;;;;;;2.15;1.10;;;;;;;;;;4807939;29;32619;-68
2021/11/16 08:29:58;;;;;;;3.80;1.30;;;;;;;;;;4804119;29;34365;-68
2021/11/16 08:32:34;;;;;;;2.33;1.00;;;;;;;;;;4808663;29;35376;-69
2021/11/16 08:35:07;;;;;;;2.33;1.23;;;;;;;;;;4807900;29;32675;-67
2021/11/16 08:37:38;;;;;;;2.45;0.93;;;;;;;;;;4809434;29;32483;-68
2021/11/16 08:40:09;;;;;;;4.40;1.52;;;;;;;;;;4809511;29;32444;-68
2021/11/16 08:42:39;;;;;;;3.45;1.33;;;;;;;;;;4809876;29;32517;-68
2021/11/16 08:45:11;;;;;;;2.10;1.95;;;;;;;;;;4810294;29;35337;-69
2021/11/16 08:47:44;;;;;;;1.38;0.90;;;;;;;;;;4809829;29;32999;-68
2021/11/16 08:50:19;;;;;;;7.57;1.33;;;;;;;;;;4809062;29;32692;-68
2021/11/16 08:52:46;;;;;;;3.25;1.23;;;;;;;;;;4808950;29;32432;-68
2021/11/16 08:55:19;;;;;;;3.63;1.13;;;;;;;;;;4809748;29;34014;-68
2021/11/16 08:57:49;;;;;;;1.48;1.25;;;;;;;;;;4808364;29;32440;-67
2021/11/16 09:00:21;;;;;;;3.40;1.38;;;;;;;;;;4807608;29;32715;-69
2021/11/16 09:02:51;;;;;;;1.80;1.05;;;;;;;;;;4809386;29;32811;-68
2021/11/16 09:05:19;;;;;;;1.70;1.30;;;;;;;;;;4799808;29;32542;-68
2021/11/16 09:07:54;;;;;;;3.20;1.23;;;;;;;;;;4810205;29;34627;-67
2021/11/16 09:10:21;;;;;;;1.88;1.25;;;;;;;;;;4809827;29;32508;-70
2021/11/16 09:12:49;;;;;;;1.85;1.15;;;;;;;;;;4808933;29;32358;-69
2021/11/16 09:15:30;;;;;;;1.65;1.02;;;;;;;;;;4810790;29;32416;-67
2021/11/16 09:18:12;;;;;;;;;;;;;;;;;;4809345;29;34302;-68
2021/11/16 09:20:39;;;;;;;2.28;1.00;;;;;;;;;;4809771;29;32686;-68
2021/11/16 09:23:07;;;;;;;4.85;1.45;;;;;;;;;;4810643;29;32636;-68
2021/11/16 09:25:36;;;;;;;1.98;0.75;;;;;;;;;;4809499;29;32526;-67
2021/11/16 09:28:25;;;;;;;1.67;1.10;;;;;;;;;;4803892;29;32444;-66
2021/11/16 09:30:53;;;;;;;1.70;1.10;;;;;;;;;;4801900;29;35453;-67
2021/11/16 09:33:21;;;;;;;;;;;;;;;;;;4798122;29;33084;-67
2021/11/16 09:35:56;;;;;;;1.58;1.33;;;;;;;;;;4810004;29;32501;-67
2021/11/16 09:38:43;;;;;;;5.40;1.42;;;;;;;;;;4810268;29;32465;-67
2021/11/16 09:41:14;;;;;;;4.60;1.42;;;;;;;;;;4795086;29;34393;-67
2021/11/16 09:43:41;;;;;;;1.90;1.27;;;;;;;;;;4810187;29;32411;-68
2021/11/16 09:46:17;;;;;;;3.60;1.23;;;;;;;;;;4810371;29;32627;-67
2021/11/16 09:48:46;;;;;;;1.67;1.10;;;;;;;;;;4811093;29;32556;-68
2021/11/16 09:51:19;;;;;;;2.05;0.93;;;;;;;;;;4808523;29;32436;-68
2021/11/16 09:53:47;;;;;;;1.55;1.17;;;;;;;;;;4809426;29;34792;-67
2021/11/16 09:56:22;;;;;;;3.30;1.55;;;;;;;;;;4809077;29;32175;-68
2021/11/16 09:58:49;;;;;;;1.63;1.27;;;;;;;;;;4808909;29;32310;-68
2021/11/16 10:01:24;;;;;;;;;;;;;;;;;;4810174;29;32401;-68
2021/11/16 10:04:11;;;;;;;2.83;1.50;;;;;;;;;;4809122;29;34706;-67
2021/11/16 10:06:39;;;;;;;5.13;1.23;;;;;;;;;;4808217;29;32651;-67
2021/11/16 10:09:07;;;;;;;3.90;1.35;;;;;;;;;;4809275;29;32404;-67
2021/11/16 10:11:40;;;;;;;1.58;1.15;;;;;;;;;;4808860;29;32455;-67
2021/11/16 10:14:12;;;;;;;2.08;1.15;;;;;;;;;;4809320;29;32435;-66
2021/11/16 10:16:39;;;;;;;1.08;0.98;;;;;;;;;;4809956;29;35246;-67
2021/11/16 10:19:07;;;;;;;3.05;1.00;;;;;;;;;;4809127;29;32781;-67
2021/11/16 10:21:34;;;;;;;2.10;1.33;;;;;;;;;;4806975;29;32314;-68
2021/11/16 10:24:19;;;;;;;3.30;1.70;;;;;;;;;;4809040;29;32395;-68
2021/11/16 10:26:46;;;;;;;3.88;1.02;;;;;;;;;;4808017;29;35030;-67
2021/11/16 10:29:17;;;;;;;1.50;1.15;;;;;;;;;;4808897;29;32645;-69
2021/11/16 10:31:44;;;;;;;3.10;1.30;;;;;;;;;;4809386;29;32502;-68
2021/11/16 10:34:13;;;;;;;1.88;1.15;;;;;;;;;;4805773;29;32547;-69
2021/11/16 10:36:39;;;;;;;2.08;1.42;;;;;;;;;;4805168;29;32455;-69
2021/11/16 10:39:07;;;;;;;5.35;1.67;;;;;;;;;;4822582;29;34206;-68
2021/11/16 10:41:34;;;;;;;;;;;;;;;;;;4802682;29;32460;-68
2021/11/16 10:44:05;;;;;;;3.70;1.23;;;;;;;;;;4808661;29;32522;-68
2021/11/16 10:46:35;;;;;;;1.73;1.27;;;;;;;;;;4807513;29;32894;-68
2021/11/16 10:49:09;;;;;;;1.63;1.52;;;;;;;;;;4808032;29;33922;-68
2021/11/16 10:51:39;;;;;;;1.38;0.98;;;;;;;;;;4807078;29;32615;-67
2021/11/16 10:54:07;;;;;;;1.40;1.15;;;;;;;;;;4808493;29;32496;-67
2021/11/16 10:56:36;;;;;;;2.35;1.55;;;;;;;;;;4808156;29;32737;-67
2021/11/16 10:59:05;;;;;;;3.03;1.48;;;;;;;;;;4809049;29;32313;-68
2021/11/16 11:01:32;;;;;;;1.73;1.45;;;;;;;;;;4808458;29;34159;-66
2021/11/16 11:03:59;;;;;;;1.65;1.35;;;;;;;;;;4805697;29;32477;-66
2021/11/16 11:06:32;;;;;;;1.85;1.52;;;;;;;;;;4808502;29;32665;-68
2021/11/16 11:09:03;;;;;;;3.50;1.13;;;;;;;;;;4806292;29;32429;-68
2021/11/16 11:11:32;;;;;;;3.40;1.77;;;;;;;;;;4808207;29;35926;-68
2021/11/16 11:14:06;;;;;;;1.92;1.30;;;;;;;;;;4804587;29;32700;-67
2021/11/16 11:16:35;;;;;;;4.22;1.42;;;;;;;;;;4808150;29;32399;-68
2021/11/16 11:19:02;;;;;;;3.35;1.63;;;;;;;;;;4805909;29;32458;-67
2021/11/16 11:21:41;;;;;;;2.75;1.98;;;;;;;;;;4808464;29;32558;-67
2021/11/16 11:24:19;;;;;;;2.90;1.67;;;;;;;;;;4806831;29;35030;-68
2021/11/16 11:26:55;;;;;;;2.80;2.08;;;;;;;;;;4806515;29;32404;-69
2021/11/16 11:29:39;;;;;;;3.33;1.60;;;;;;;;;;4805949;29;32819;-69
2021/11/16 11:32:15;;;;;;;2.60;1.75;;;;;;;;;;4805277;29;32515;-68
2021/11/16 11:34:48;;;;;;;2.17;1.48;;;;;;;;;;4805762;29;34113;-67
2021/11/16 11:37:21;;;;;;;2.78;1.75;;;;;;;;;;4806933;29;32698;-68
2021/11/16 11:39:59;;;;;;;2.90;1.70;;;;;;;;;;4808115;29;32632;-67
2021/11/16 11:42:27;;;;;;;3.67;1.83;;;;;;;;;;4799763;29;32418;-69
2021/11/16 11:45:22;;;;;;;2.65;1.92;;;;;;;;;;4807362;29;32448;-69
2021/11/16 11:47:50;;;;;;;3.25;2.03;;;;;;;;;;4806775;29;34257;-69
2021/11/16 11:50:30;;;;;;;2.28;1.67;;;;;;;;;;4801496;29;32506;-71
2021/11/16 11:52:58;;;;;;;3.42;1.52;;;;;;;;;;4810889;29;32531;-66
2021/11/16 11:55:29;;;;;;;2.53;1.33;;;;;;;;;;4809570;29;32797;-67
2021/11/16 11:57:56;;;;;;;4.47;1.35;;;;;;;;;;4810510;29;34346;-68
2021/11/16 12:00:24;;;;;;;2.08;1.67;;;;;;;;;;4810690;29;32486;-69
2021/11/16 12:02:51;;;;;;;2.33;1.75;;;;;;;;;;4810759;29;32302;-68
2021/11/16 12:05:19;;;;;;;2.50;1.83;;;;;;;;;;4809890;29;32594;-69
2021/11/16 12:07:46;;;;;;;2.85;1.30;;;;;;;;;;4810942;29;32413;-68
2021/11/16 12:10:13;;;;;;;2.15;1.17;;;;;;;;;;4809757;29;34086;-67
2021/11/16 12:12:42;;;;;;;2.78;1.60;;;;;;;;;;4810590;29;32489;-67
2021/11/16 12:15:13;;;;;;;3.40;1.60;;;;;;;;;;4809441;29;32462;-67
2021/11/16 12:17:49;;;;;;;2.25;1.73;;;;;;;;;;4808917;29;32527;-67
2021/11/16 12:20:38;;;;;;;2.28;1.50;;;;;;;;;;4808305;29;35217;-68
2021/11/16 12:23:07;;;;;;;1.70;1.60;;;;;;;;;;4809032;29;32590;-69
2021/11/16 12:25:34;;;;;;;2.55;1.75;;;;;;;;;;4805780;29;32450;-68
2021/11/16 12:28:23;;;;;;;2.28;1.42;;;;;;;;;;4810648;29;32477;-68
2021/11/16 12:30:50;;;;;;;2.75;1.83;;;;;;;;;;4810238;29;32447;-67
2021/11/16 12:33:37;;;;;;;2.22;1.75;;;;;;;;;;4810611;29;32586;-69
2021/11/16 12:36:04;;;;;;;3.72;1.60;;;;;;;;;;4810802;29;32363;-69
2021/11/16 12:38:35;;;;;;;2.13;1.42;;;;;;;;;;4810744;29;32424;-69
2021/11/16 12:41:32;;;;;;;3.30;1.85;;;;;;;;;;4809674;29;32568;-67
2021/11/16 12:44:04;;;;;;;2.70;1.52;;;;;;;;;;4807792;29;34547;-68
2021/11/16 12:46:35;;;;;;;2.60;1.63;;;;;;;;;;4806576;29;32643;-68
2021/11/16 12:49:04;;;;;;;1.70;1.20;;;;;;;;;;4810915;29;32454;-67
2021/11/16 12:51:34;;;;;;;2.95;1.30;;;;;;;;;;4810284;29;32537;-68
2021/11/16 12:54:04;;;;;;;1.50;1.20;;;;;;;;;;4803832;29;32649;-69
2021/11/16 12:57:14;;;;;;;2.75;1.50;;;;;;;;;;4805803;29;33050;-68
2021/11/16 13:00:09;;;;;;;2.20;1.33;;;;;;;;;;4783360;29;32664;-69
2021/11/16 13:02:49;;;;;;;2.92;1.65;;;;;;;;;;4797489;29;32507;-68
2021/11/16 13:05:30;;;;;;;2.10;1.38;;;;;;;;;;4810370;29;32203;-72
2021/11/16 13:07:59;;;;;;;2.15;1.45;;;;;;;;;;4810232;29;34141;-72
2021/11/16 13:10:29;;;;;;;4.57;2.20;;;;;;;;;;4810235;29;32670;-71
2021/11/16 13:13:02;;;;;;;2.28;1.30;;;;;;;;;;4810587;29;32483;-71
2021/11/16 13:15:50;;;;;;;1.88;1.63;;;;;;;;;;4810275;29;32657;-72
2021/11/16 13:18:30;;;;;;;1.75;1.33;;;;;;;;;;4808753;29;32914;-71
2021/11/16 13:21:17;;;;;;;3.08;1.50;;;;;;;;;;4808271;29;32479;-71
2021/11/16 13:23:50;;;;;;;;;;;;;;;;;;4809775;29;32436;-71
2021/11/16 13:26:30;;;;;;;2.65;1.30;;;;;;;;;;4809784;29;32363;-71
2021/11/16 13:31:54;;;;;;;3.55;1.55;;;;;;;;;;4809488;29;34240;-71
2021/11/16 13:34:41;;;;;;;2.30;2.05;;;;;;;;;;4807966;29;32639;-71
2021/11/16 13:37:20;;;;;;;2.42;1.40;;;;;;;;;;4810563;29;32565;-71
2021/11/16 13:39:47;;;;;;;2.05;1.70;;;;;;;;;;4809858;29;33482;-72
2021/11/16 13:42:16;;;;;;;2.65;2.03;;;;;;;;;;4810388;29;32601;-71
2021/11/16 13:44:46;;;;;;;2.25;1.90;;;;;;;;;;4810205;29;32533;-71
2021/11/16 13:47:22;;;;;;;2.97;1.95;;;;;;;;;;4809516;29;32672;-70
2021/11/16 13:49:52;;;;;;;3.78;2.15;;;;;;;;;;4810532;29;32239;-71
2021/11/16 13:52:25;;;;;;;3.42;2.35;;;;;;;;;;4810361;29;32784;-71
2021/11/16 13:54:56;;;;;;;4.15;1.98;;;;;;;;;;4803467;29;35974;-71
2021/11/16 13:57:26;;;;;;;4.13;2.30;;;;;;;;;;4810213;29;32232;-71
2021/11/16 13:59:56;;;;;;;4.18;2.78;;;;;;;;;;4809057;29;32602;-70
2021/11/16 14:02:25;;;;;;;4.97;2.75;;;;;;;;;;4804493;29;32958;-68
2021/11/16 14:04:58;;;;;;;4.50;2.40;;;;;;;;;;4809751;29;32504;-68
2021/11/16 14:07:26;;;;;;;4.28;2.47;;;;;;;;;;4805103;29;32675;-69
2021/11/16 14:10:12;;;;;;;2.78;2.33;;;;;;;;;;4801734;29;32328;-68
2021/11/16 14:12:41;;;;;;;3.30;2.65;;;;;;;;;;4806435;29;31961;-69
2021/11/16 14:15:14;;;;;;;5.68;2.72;;;;;;;;;;4803669;29;32301;-68
2021/11/16 14:17:43;;;;;;;5.10;2.60;;;;;;;;;;4807674;29;34181;-66
2021/11/16 14:20:11;;;;;;;4.50;2.67;;;;;;;;;;4809066;29;32438;-65
2021/11/16 14:22:41;;;;;;;3.70;2.55;;;;;;;;;;4807554;29;32388;-68
2021/11/16 14:25:18;;;;;;;5.20;2.22;;;;;;;;;;4808238;29;32441;-66
2021/11/16 14:28:00;;;;;;;3.85;2.92;;;;;;;;;;4808692;29;32754;-66
2021/11/16 14:30:30;;;;;;;3.67;2.75;;;;;;;;;;4807918;29;32433;-65
2021/11/16 14:33:04;;;;;;;3.08;2.25;;;;;;;;;;4808598;29;32517;-68
2021/11/16 14:35:31;;;;;;;;;;;;;;;;;;4810722;29;32551;-66
2021/11/16 14:37:57;;;;;;;3.13;2.22;;;;;;;;;;4808540;29;32560;-67
2021/11/16 14:40:27;;;;;;;2.78;2.28;;;;;;;;;;4807967;29;35501;-69
2021/11/16 14:42:55;;;;;;;2.63;2.35;;;;;;;;;;4808851;29;32543;-65
2021/11/16 14:45:25;;;;;;;3.60;2.47;;;;;;;;;;4807351;29;32618;-69
2021/11/16 14:47:57;;;;;;;3.20;2.55;;;;;;;;;;4807186;29;32472;-68
2021/11/16 14:50:36;;;;;;;3.45;2.25;;;;;;;;;;4807832;29;34535;-66
2021/11/16 14:53:12;;;;;;;8.45;2.55;;;;;;;;;;4808314;29;32643;-65
2021/11/16 14:55:39;;;;;;;6.78;2.33;;;;;;;;;;4805162;29;32625;-66
2021/11/16 14:58:10;;;;;;;5.25;2.55;;;;;;;;;;4808048;29;32519;-66
2021/11/16 15:00:40;;;;;;;5.00;2.47;;;;;;;;;;4807201;29;32467;-66
2021/11/16 15:03:10;;;;;;;8.27;3.08;;;;;;;;;;4805824;29;34665;-65
2021/11/16 15:05:42;;;;;;;4.90;2.17;;;;;;;;;;4797838;29;32252;-65
2021/11/16 15:08:11;;;;;;;8.40;2.40;;;;;;;;;;4806102;29;32527;-66
2021/11/16 15:10:41;;;;;;;4.93;2.38;;;;;;;;;;4806184;29;32777;-66
2021/11/16 15:13:09;;;;;;;5.00;2.00;;;;;;;;;;4804831;29;34551;-66
2021/11/16 15:15:38;;;;;;;4.18;2.80;;;;;;;;;;4807289;29;32361;-66
2021/11/16 15:18:08;;;;;;;4.43;2.15;;;;;;;;;;4807463;29;32424;-66
2021/11/16 15:20:43;;;;;;;3.83;1.80;;;;;;;;;;4803144;29;32376;-66
2021/11/16 15:23:15;;;;;;;3.25;2.40;;;;;;;;;;4806948;29;32727;-67
2021/11/16 15:25:48;;;;;;;3.60;2.15;;;;;;;;;;4809659;29;35633;-67